EVLA

Liepāja International Airport

Liepāja, Latvia
TAF EVLA 221402Z 2215/2315 18010KT 9999 BKN020 TEMPO 2215/2218 3000 -SN BR BKN005 BKN030 TEMPO 2218/2223 2000 SN BR BKN002
Issued Valid From Valid To
Jan-22 @ 14:02 UTC
(3 hours ago)
Jan-22 @ 15:00 UTC
(2 hours ago)
Jan-23 @ 15:00 UTC
(in 22 hours)
Jan-22 @ 15:00 to Jan-23 @ 15:00
TAF EVLA 221402Z 2215/2315 18010KT 9999 BKN020
Wind Visibility Clouds
180° at 10 knots 10,000+ meters
  • Broken at 2,000' AGL
Temporary Jan-22 @ 15:00 to Jan-22 @ 18:00
TEMPO 2215/2218 3000 -SN BR BKN005 BKN030
Visibility Clouds Conditions
2,993 meters
  • Broken at 500' AGL
  • Broken at 3,000' AGL
  • Light Snow
  • Mist
Temporary Jan-22 @ 18:00 to Jan-22 @ 23:00
TEMPO 2218/2223 2000 SN BR BKN002
Visibility Clouds Conditions
1,996 meters
  • Broken at 200' AGL
  • Snow
  • Mist
TAF EVLA 221402Z 2215/2315 18010KT 9999 BKN020 TEMPO 2215/2218 3000 -SN BR BKN005 BKN030 TEMPO 2218/2223 2000 SN BR BKN002
Issued Jan-22 @ 14:02 UTC
(3 hours ago)
Valid From Jan-22 @ 15:00 UTC
(2 hours ago)
Valid To Jan-23 @ 15:00 UTC
(in 22 hours)
Jan-22 @ 15:00 - Jan-23 @ 15:00
Wind Visibility
180° at 10 knots 10,000+ meters
Clouds
  • Broken at 2,000' AGL
Temporary Jan-22 @ 15:00 - Jan-22 @ 18:00
Clouds
  • Broken at 500' AGL
  • Broken at 3,000' AGL
Conditions
  • Light Snow
  • Mist
Temporary Jan-22 @ 18:00 - Jan-22 @ 23:00
Clouds
  • Broken at 200' AGL
Conditions
  • Snow
  • Mist